createdAt,value
2017-06-19T00:00:28.799Z,1016.38
2017-06-19T00:01:09.348Z,1016.34
2017-06-19T00:01:49.897Z,1016.36
2017-06-19T00:02:30.439Z,1016.36
2017-06-19T00:03:10.976Z,1016.36
2017-06-19T00:03:51.520Z,1016.37
2017-06-19T00:04:32.059Z,1016.35
2017-06-19T00:05:12.603Z,1016.35
2017-06-19T00:05:53.142Z,1016.35
2017-06-19T00:06:33.680Z,1016.36
2017-06-19T00:07:14.227Z,1016.35
2017-06-19T00:07:54.793Z,1016.32
2017-06-19T00:08:35.327Z,1016.33
2017-06-19T00:09:15.870Z,1016.32
2017-06-19T00:09:56.448Z,1016.3
2017-06-19T00:10:36.989Z,1016.31
2017-06-19T00:11:17.529Z,1016.32
2017-06-19T00:11:58.072Z,1016.32
2017-06-19T00:12:38.615Z,1016.29
2017-06-19T00:13:19.163Z,1016.26
2017-06-19T00:13:59.711Z,1016.32
2017-06-19T00:14:40.246Z,1016.28
2017-06-19T00:15:20.791Z,1016.29
2017-06-19T00:16:01.339Z,1016.31
2017-06-19T00:16:41.882Z,1016.28
2017-06-19T00:17:22.420Z,1016.26
2017-06-19T00:18:02.959Z,1016.27
2017-06-19T00:18:43.498Z,1016.24
2017-06-19T00:19:24.039Z,1016.24
2017-06-19T00:20:04.590Z,1016.22
2017-06-19T00:20:45.132Z,1016.23
2017-06-19T00:21:25.672Z,1016.21
2017-06-19T00:22:06.220Z,1016.24
2017-06-19T00:22:46.758Z,1016.24
2017-06-19T00:23:27.301Z,1016.24
2017-06-19T00:24:07.835Z,1016.24
2017-06-19T00:24:48.379Z,1016.25
2017-06-19T00:25:28.926Z,1016.3
2017-06-19T00:26:09.466Z,1016.26
2017-06-19T00:26:50.012Z,1016.31
2017-06-19T00:27:30.548Z,1016.32
2017-06-19T00:28:11.097Z,1016.36
2017-06-19T00:28:51.631Z,1016.32
2017-06-19T00:29:32.179Z,1016.32
2017-06-19T00:30:12.735Z,1016.33
2017-06-19T00:30:53.282Z,1016.3
2017-06-19T00:31:33.821Z,1016.37
2017-06-19T00:32:14.362Z,1016.28
2017-06-19T00:32:54.912Z,1016.33
2017-06-19T00:33:35.453Z,1016.35
2017-06-19T00:34:15.991Z,1016.3
2017-06-19T00:34:56.527Z,1016.3
2017-06-19T00:35:37.064Z,1016.29
2017-06-19T00:36:17.614Z,1016.28
2017-06-19T00:36:58.172Z,1016.31
2017-06-19T00:37:38.699Z,1016.29
2017-06-19T00:38:19.240Z,1016.32
2017-06-19T00:38:59.779Z,1016.27
2017-06-19T00:39:40.328Z,1016.28
2017-06-19T00:40:20.870Z,1016.27
2017-06-19T00:41:01.412Z,1016.29
2017-06-19T00:41:41.956Z,1016.28
2017-06-19T00:42:22.487Z,1016.28
2017-06-19T00:43:03.027Z,1016.27
2017-06-19T00:43:43.567Z,1016.26
2017-06-19T00:44:24.113Z,1016.27
2017-06-19T00:45:04.663Z,1016.23
2017-06-19T00:45:45.201Z,1016.24
2017-06-19T00:46:25.746Z,1016.22
2017-06-19T00:47:06.288Z,1016.23
2017-06-19T00:47:46.833Z,1016.23
2017-06-19T00:48:27.377Z,1016.24
2017-06-19T00:49:07.925Z,1016.21
2017-06-19T00:49:48.468Z,1016.2
2017-06-19T00:50:29.011Z,1016.17
2017-06-19T00:51:09.547Z,1016.19
2017-06-19T00:51:50.091Z,1016.21
2017-06-19T00:52:30.627Z,1016.19
2017-06-19T00:53:11.166Z,1016.2
2017-06-19T00:53:51.707Z,1016.22
2017-06-19T00:54:32.254Z,1016.19
2017-06-19T00:55:12.797Z,1016.17
2017-06-19T00:55:53.339Z,1016.2
2017-06-19T00:56:33.881Z,1016.19
2017-06-19T00:57:14.427Z,1016.15
2017-06-19T00:57:54.966Z,1016.17
2017-06-19T00:58:35.503Z,1016.17
2017-06-19T00:59:16.050Z,1016.12
2017-06-19T00:59:56.580Z,1016.12
2017-06-19T01:00:37.122Z,1016.14
2017-06-19T01:01:17.663Z,1016.12
2017-06-19T01:01:58.211Z,1016.14
2017-06-19T01:02:38.752Z,1016.14
2017-06-19T01:03:19.293Z,1016.15
2017-06-19T01:03:59.832Z,1016.13
2017-06-19T01:04:40.369Z,1016.1
2017-06-19T01:05:20.909Z,1016.13
2017-06-19T01:06:01.449Z,1016.09
2017-06-19T01:06:42.011Z,1016.05
2017-06-19T01:07:22.538Z,1016.08
2017-06-19T01:08:03.080Z,1016.06
2017-06-19T01:08:43.622Z,1016.11
2017-06-19T01:09:24.170Z,1016.09
2017-06-19T01:10:04.718Z,1016.1
2017-06-19T01:10:45.261Z,1016.12
2017-06-19T01:11:25.803Z,1016.08
2017-06-19T01:12:06.351Z,1016.06
2017-06-19T01:12:46.892Z,1016.05
2017-06-19T01:13:27.443Z,1016.07
2017-06-19T01:14:07.984Z,1016.07
2017-06-19T01:14:48.528Z,1016.08
2017-06-19T01:15:29.069Z,1016.06
2017-06-19T01:16:09.612Z,1016.08
2017-06-19T01:16:50.151Z,1016.06
2017-06-19T01:17:30.698Z,1016.08
2017-06-19T01:18:11.232Z,1016.13
2017-06-19T01:18:51.792Z,1016.07
2017-06-19T01:19:32.335Z,1016.09
2017-06-19T01:20:12.882Z,1016.11
2017-06-19T01:20:53.423Z,1016.08
2017-06-19T01:21:33.963Z,1016.06
2017-06-19T01:22:14.502Z,1016.13
2017-06-19T01:22:55.039Z,1016.12
2017-06-19T01:23:35.583Z,1016.1
2017-06-19T01:24:16.120Z,1016.12
2017-06-19T01:24:56.658Z,1016.12
2017-06-19T01:25:37.205Z,1016.11
2017-06-19T01:26:17.743Z,1016.12
2017-06-19T01:26:58.290Z,1016.08
2017-06-19T01:27:38.831Z,1016.14
2017-06-19T01:28:19.425Z,1016.11
2017-06-19T01:28:59.967Z,1016.12
2017-06-19T01:29:40.511Z,1016.11
2017-06-19T01:30:21.052Z,1016.09
2017-06-19T01:31:01.595Z,1016.13
2017-06-19T01:31:42.137Z,1016.1
2017-06-19T01:32:22.685Z,1016.06
2017-06-19T01:33:03.235Z,1016.08
2017-06-19T01:33:43.777Z,1016.08
2017-06-19T01:34:24.327Z,1016.07
2017-06-19T01:35:04.875Z,1016.1
2017-06-19T01:35:45.416Z,1016.09
2017-06-19T01:36:25.957Z,1016.05
2017-06-19T01:37:06.492Z,1016.08
2017-06-19T01:37:47.038Z,1016.1
2017-06-19T01:38:27.578Z,1016.05
2017-06-19T01:39:08.123Z,1016.09
2017-06-19T01:39:48.661Z,1016.09
2017-06-19T01:40:29.205Z,1016.06
2017-06-19T01:41:09.753Z,1016.06
2017-06-19T01:41:50.296Z,1016.1
2017-06-19T01:42:30.841Z,1016.06
2017-06-19T01:43:11.391Z,1016.02
2017-06-19T01:43:51.934Z,1016.1
2017-06-19T01:44:32.478Z,1016.05
2017-06-19T01:45:13.017Z,1016.05
2017-06-19T01:45:53.560Z,1016.11
2017-06-19T01:46:34.101Z,1016.09
2017-06-19T01:47:14.641Z,1016.08
2017-06-19T01:47:55.242Z,1016.08
2017-06-19T01:48:35.790Z,1016.11
2017-06-19T01:49:16.334Z,1016.14
2017-06-19T01:49:56.884Z,1016.13
2017-06-19T01:50:37.421Z,1016.12
2017-06-19T01:51:17.960Z,1016.14
2017-06-19T01:51:58.502Z,1016.14
2017-06-19T01:52:39.039Z,1016.12
2017-06-19T01:53:19.588Z,1016.13
2017-06-19T01:54:00.126Z,1016.1
2017-06-19T01:54:40.669Z,1016.11
2017-06-19T01:55:21.213Z,1016.1
2017-06-19T01:56:01.749Z,1016.06
2017-06-19T01:56:42.291Z,1016.09
2017-06-19T01:57:22.820Z,1016.1
2017-06-19T01:58:03.361Z,1016.09
2017-06-19T01:58:43.904Z,1016.08
2017-06-19T01:59:24.446Z,1016.1
2017-06-19T02:00:04.987Z,1016.08
2017-06-19T02:00:45.529Z,1016.08
2017-06-19T02:01:26.077Z,1016.09
2017-06-19T02:02:06.626Z,1016.08
2017-06-19T02:02:47.171Z,1016.09
2017-06-19T02:03:27.707Z,1016.12
2017-06-19T02:04:08.256Z,1016.12
2017-06-19T02:04:48.802Z,1016.13
2017-06-19T02:05:29.339Z,1016.14
2017-06-19T02:06:09.873Z,1016.15
2017-06-19T02:06:50.405Z,1016.11
2017-06-19T02:07:30.941Z,1016.11
2017-06-19T02:08:11.489Z,1016.05
2017-06-19T02:08:52.027Z,1016.1
2017-06-19T02:09:32.579Z,1016.06
2017-06-19T02:10:13.124Z,1016.06
2017-06-19T02:10:53.669Z,1016.07
2017-06-19T02:11:34.214Z,1016.04
2017-06-19T02:12:14.757Z,1016.05
2017-06-19T02:12:55.303Z,1016.04
2017-06-19T02:13:35.841Z,1016.02
2017-06-19T02:14:16.380Z,1016.03
2017-06-19T02:14:56.915Z,1016.04
2017-06-19T02:15:37.462Z,1016
2017-06-19T02:16:17.999Z,1016
2017-06-19T02:16:58.543Z,1015.97
2017-06-19T02:17:39.086Z,1016
2017-06-19T02:18:19.631Z,1016
2017-06-19T02:19:00.177Z,1015.98
2017-06-19T02:19:40.720Z,1015.97
2017-06-19T02:20:21.267Z,1015.97
2017-06-19T02:21:01.817Z,1016
2017-06-19T02:21:42.366Z,1015.99
2017-06-19T02:22:22.904Z,1015.98
2017-06-19T02:23:03.441Z,1015.99
2017-06-19T02:23:43.986Z,1016.01
2017-06-19T02:24:24.524Z,1015.98
2017-06-19T02:25:05.072Z,1015.98
2017-06-19T02:25:45.616Z,1015.98
2017-06-19T02:26:26.158Z,1015.98
2017-06-19T02:27:06.704Z,1015.97
2017-06-19T02:27:47.247Z,1015.97
2017-06-19T02:28:27.794Z,1015.98
2017-06-19T02:29:08.338Z,1016
2017-06-19T02:29:48.883Z,1015.97
2017-06-19T02:30:29.429Z,1015.98
2017-06-19T02:31:09.965Z,1015.95
2017-06-19T02:31:50.493Z,1015.97
2017-06-19T02:32:31.040Z,1015.97
2017-06-19T02:33:11.583Z,1015.98
2017-06-19T02:33:52.131Z,1015.97
2017-06-19T02:34:32.664Z,1016.01
2017-06-19T02:35:13.203Z,1015.99
2017-06-19T02:35:53.751Z,1016
2017-06-19T02:36:34.295Z,1016.01
2017-06-19T02:37:14.844Z,1016.04
2017-06-19T02:37:55.385Z,1016.05
2017-06-19T02:38:35.910Z,1016.05
2017-06-19T02:39:16.457Z,1016.07
2017-06-19T02:39:56.990Z,1016.05
2017-06-19T02:40:37.557Z,1016.05
2017-06-19T02:41:18.070Z,1016.08
2017-06-19T02:41:58.607Z,1016.06
2017-06-19T02:42:39.152Z,1016.08
2017-06-19T02:43:19.700Z,1016.09
2017-06-19T02:44:00.242Z,1016.1
2017-06-19T02:44:40.780Z,1016.04
2017-06-19T02:45:21.315Z,1016.06
2017-06-19T02:46:01.857Z,1016.07
2017-06-19T02:46:42.395Z,1016.03
2017-06-19T02:47:22.939Z,1016.02
2017-06-19T02:48:03.478Z,1016.05
2017-06-19T02:48:44.029Z,1016.05
2017-06-19T02:49:24.564Z,1016.03
2017-06-19T02:50:05.110Z,1016
2017-06-19T02:50:45.654Z,1016.01
2017-06-19T02:51:26.198Z,1016
2017-06-19T02:52:06.739Z,1016.02
2017-06-19T02:52:47.282Z,1016.03
2017-06-19T02:53:27.823Z,1016.04
2017-06-19T02:54:08.358Z,1016.03
2017-06-19T02:54:48.902Z,1016
2017-06-19T02:55:29.446Z,1015.98
2017-06-19T02:56:09.990Z,1016.01
2017-06-19T02:56:50.534Z,1015.98
2017-06-19T02:57:31.078Z,1016.01
2017-06-19T02:58:11.623Z,1016.01
2017-06-19T02:58:52.165Z,1015.97
2017-06-19T02:59:32.705Z,1015.99
2017-06-19T03:00:13.247Z,1016
2017-06-19T03:00:53.781Z,1015.99
2017-06-19T03:01:34.327Z,1016
2017-06-19T03:02:14.872Z,1015.98
2017-06-19T03:02:55.412Z,1016.01
2017-06-19T03:03:35.961Z,1015.99
2017-06-19T03:04:16.500Z,1015.99
2017-06-19T03:04:57.050Z,1015.97
2017-06-19T03:05:37.615Z,1016
2017-06-19T03:06:18.134Z,1015.93
2017-06-19T03:06:58.678Z,1015.96
2017-06-19T03:07:39.222Z,1015.97
2017-06-19T03:08:19.772Z,1015.95
2017-06-19T03:09:00.325Z,1015.95
2017-06-19T03:09:40.868Z,1015.96
2017-06-19T03:10:21.410Z,1015.99
2017-06-19T03:11:01.944Z,1015.97
2017-06-19T03:11:42.491Z,1015.97
2017-06-19T03:12:23.033Z,1015.99
2017-06-19T03:13:03.571Z,1015.99
2017-06-19T03:13:44.126Z,1015.98
2017-06-19T03:14:24.661Z,1015.96
2017-06-19T03:15:05.208Z,1015.97
2017-06-19T03:15:45.752Z,1015.94
2017-06-19T03:16:26.300Z,1015.93
2017-06-19T03:17:06.847Z,1015.93
2017-06-19T03:17:47.383Z,1015.95
2017-06-19T03:18:27.927Z,1015.91
2017-06-19T03:19:08.478Z,1015.9
2017-06-19T03:19:49.016Z,1015.89
2017-06-19T03:20:29.557Z,1015.91
2017-06-19T03:21:10.098Z,1015.88
2017-06-19T03:21:50.639Z,1015.89
2017-06-19T03:22:31.184Z,1015.9
2017-06-19T03:23:11.717Z,1015.91
2017-06-19T03:23:52.266Z,1015.92
2017-06-19T03:24:32.813Z,1015.87
2017-06-19T03:25:13.366Z,1015.9
2017-06-19T03:25:53.997Z,1015.89
2017-06-19T03:26:34.538Z,1015.88
2017-06-19T03:27:15.077Z,1015.93
2017-06-19T03:27:55.613Z,1015.89
2017-06-19T03:28:36.158Z,1015.89
2017-06-19T03:29:16.715Z,1015.89
2017-06-19T03:29:57.278Z,1015.87
2017-06-19T03:30:37.814Z,1015.86
2017-06-19T03:31:18.354Z,1015.88
2017-06-19T03:31:58.894Z,1015.9
2017-06-19T03:32:39.444Z,1015.88
2017-06-19T03:33:19.990Z,1015.89
2017-06-19T03:34:00.590Z,1015.88
2017-06-19T03:34:41.137Z,1015.89
2017-06-19T03:35:21.669Z,1015.87
2017-06-19T03:36:02.203Z,1015.83
2017-06-19T03:36:42.750Z,1015.85
2017-06-19T03:37:23.360Z,1015.87
2017-06-19T03:38:03.903Z,1015.9
2017-06-19T03:38:44.453Z,1015.9
2017-06-19T03:39:24.992Z,1015.86
2017-06-19T03:40:05.530Z,1015.85
2017-06-19T03:40:46.077Z,1015.88
2017-06-19T03:41:26.609Z,1015.84
2017-06-19T03:42:07.158Z,1015.88
2017-06-19T03:42:47.702Z,1015.85
2017-06-19T03:43:28.245Z,1015.86
2017-06-19T03:44:08.790Z,1015.83
2017-06-19T03:44:49.360Z,1015.89
2017-06-19T03:45:29.936Z,1015.85
2017-06-19T03:46:10.483Z,1015.85
2017-06-19T03:46:51.016Z,1015.89
2017-06-19T03:47:31.564Z,1015.89
2017-06-19T03:48:12.100Z,1015.9
2017-06-19T03:48:52.645Z,1015.86
2017-06-19T03:49:33.190Z,1015.85
2017-06-19T03:50:13.737Z,1015.87
2017-06-19T03:50:54.279Z,1015.88
2017-06-19T03:51:34.820Z,1015.88
2017-06-19T03:52:15.375Z,1015.87
2017-06-19T03:52:55.911Z,1015.91
2017-06-19T03:53:36.442Z,1015.89
2017-06-19T03:54:16.982Z,1015.91
2017-06-19T03:54:57.524Z,1015.9
2017-06-19T03:55:38.066Z,1015.89
2017-06-19T03:56:18.610Z,1015.9
2017-06-19T03:56:59.156Z,1015.89
2017-06-19T03:57:39.718Z,1015.91
2017-06-19T03:58:20.259Z,1015.92
2017-06-19T03:59:00.807Z,1015.9
2017-06-19T03:59:41.352Z,1015.88
2017-06-19T04:00:21.912Z,1015.9
2017-06-19T04:01:02.459Z,1015.88
2017-06-19T04:01:43.002Z,1015.9
2017-06-19T04:02:23.545Z,1015.92
2017-06-19T04:03:04.089Z,1015.9
2017-06-19T04:03:44.629Z,1015.92
2017-06-19T04:04:25.157Z,1015.95
2017-06-19T04:05:05.744Z,1015.96
2017-06-19T04:05:46.275Z,1015.99
2017-06-19T04:06:26.823Z,1016.01
2017-06-19T04:07:07.352Z,1016
2017-06-19T04:07:47.891Z,1016.02
2017-06-19T04:08:28.419Z,1016.02
2017-06-19T04:09:08.969Z,1016.05
2017-06-19T04:09:49.495Z,1015.99
2017-06-19T04:10:30.050Z,1016
2017-06-19T04:11:10.597Z,1016
2017-06-19T04:11:51.141Z,1016.02
2017-06-19T04:12:31.698Z,1016.04
2017-06-19T04:13:12.245Z,1016.02
2017-06-19T04:13:52.791Z,1016.02
2017-06-19T04:14:33.345Z,1016
2017-06-19T04:15:13.882Z,1016.02
2017-06-19T04:15:54.417Z,1016
2017-06-19T04:16:34.962Z,1016.02
2017-06-19T04:17:15.504Z,1015.99
2017-06-19T04:17:56.027Z,1016.02
2017-06-19T04:18:36.569Z,1016.03
2017-06-19T04:19:17.112Z,1016.02
2017-06-19T04:19:57.679Z,1016.04
2017-06-19T04:20:38.222Z,1016.06
2017-06-19T04:21:18.747Z,1016.06
2017-06-19T04:21:59.286Z,1016.06
2017-06-19T04:22:39.875Z,1016.07
2017-06-19T04:23:20.523Z,1016.05
2017-06-19T04:24:01.197Z,1016.08
2017-06-19T04:24:42.075Z,1016.04
2017-06-19T04:25:22.597Z,1016.05
2017-06-19T04:26:03.154Z,1016.04
2017-06-19T04:26:43.715Z,1016.07
2017-06-19T04:27:24.266Z,1016.05
2017-06-19T04:28:04.809Z,1016.07
2017-06-19T04:28:45.356Z,1016.09
2017-06-19T04:29:25.898Z,1016.07
2017-06-19T04:30:06.433Z,1016.08
2017-06-19T04:30:46.977Z,1016.1
2017-06-19T04:31:27.528Z,1016.09
2017-06-19T04:32:08.071Z,1016.12
2017-06-19T04:32:48.604Z,1016.08
2017-06-19T04:33:29.150Z,1016.07
2017-06-19T04:34:09.682Z,1016.07
2017-06-19T04:34:50.221Z,1016.05
2017-06-19T04:35:30.761Z,1016.08
2017-06-19T04:36:11.298Z,1016.04
2017-06-19T04:36:51.837Z,1016.05
2017-06-19T04:37:32.390Z,1016.08
2017-06-19T04:38:12.932Z,1016.12
2017-06-19T04:38:53.469Z,1016.07
2017-06-19T04:39:34.042Z,1016.09
2017-06-19T04:40:14.740Z,1016.11
2017-06-19T04:40:55.285Z,1016.08
2017-06-19T04:41:35.833Z,1016.05
2017-06-19T04:42:16.385Z,1016.05
2017-06-19T04:42:56.931Z,1016.08
2017-06-19T04:43:37.475Z,1016.07
2017-06-19T04:44:18.017Z,1016.05
2017-06-19T04:44:58.557Z,1016.08
2017-06-19T04:45:39.095Z,1016.05
2017-06-19T04:46:19.627Z,1016.06
2017-06-19T04:47:00.169Z,1016.1
2017-06-19T04:47:40.717Z,1016.04
2017-06-19T04:48:21.252Z,1016.1
2017-06-19T04:49:01.804Z,1016.1
2017-06-19T04:49:42.347Z,1016.1
2017-06-19T04:50:22.889Z,1016.11
2017-06-19T04:51:03.432Z,1016.1
2017-06-19T04:51:43.980Z,1016.09
2017-06-19T04:52:24.523Z,1016.09
2017-06-19T04:53:05.062Z,1016.07
2017-06-19T04:53:45.619Z,1016.05
2017-06-19T04:54:26.165Z,1016.04
2017-06-19T04:55:06.708Z,1016.08
2017-06-19T04:55:47.237Z,1016.09
2017-06-19T04:56:27.779Z,1016.08
2017-06-19T04:57:08.320Z,1016.08
2017-06-19T04:57:48.865Z,1016.07
2017-06-19T04:58:29.419Z,1016.1
2017-06-19T04:59:09.944Z,1016.09
2017-06-19T04:59:50.495Z,1016.09
2017-06-19T05:00:31.085Z,1016.1
2017-06-19T05:01:11.626Z,1016.1
2017-06-19T05:01:52.154Z,1016.09
2017-06-19T05:02:32.703Z,1016.11
2017-06-19T05:03:13.248Z,1016.07
2017-06-19T05:03:53.782Z,1016.09
2017-06-19T05:04:34.331Z,1016.07
2017-06-19T05:05:14.876Z,1016.08
2017-06-19T05:05:55.416Z,1016.07
2017-06-19T05:06:35.967Z,1016.1
2017-06-19T05:07:16.495Z,1016.1
2017-06-19T05:07:57.032Z,1016.08
2017-06-19T05:08:37.624Z,1016.07
2017-06-19T05:09:18.114Z,1016.1
2017-06-19T05:09:58.653Z,1016.1
2017-06-19T05:10:39.203Z,1016.07
2017-06-19T05:11:19.756Z,1016.07
2017-06-19T05:12:00.304Z,1016.08
2017-06-19T05:12:40.847Z,1016.1
2017-06-19T05:13:21.405Z,1016.08
2017-06-19T05:14:01.950Z,1016.06
2017-06-19T05:14:42.494Z,1016.06
2017-06-19T05:15:23.058Z,1016.04
2017-06-19T05:16:03.602Z,1016.06
2017-06-19T05:16:44.142Z,1016.06
2017-06-19T05:17:24.689Z,1016.05
2017-06-19T05:18:05.240Z,1016.07
2017-06-19T05:18:45.775Z,1016.09
2017-06-19T05:19:26.309Z,1016.08
2017-06-19T05:20:06.848Z,1016.08
2017-06-19T05:20:47.390Z,1016.09
2017-06-19T05:21:27.935Z,1016.1
2017-06-19T05:22:08.470Z,1016.1
2017-06-19T05:22:49.005Z,1016.1
2017-06-19T05:23:29.554Z,1016.12
2017-06-19T05:24:10.096Z,1016.11
2017-06-19T05:24:50.636Z,1016.08
2017-06-19T05:25:31.174Z,1016.08
2017-06-19T05:26:11.671Z,1016.07
2017-06-19T05:26:52.220Z,1016.05
2017-06-19T05:27:32.754Z,1016.05
2017-06-19T05:28:13.293Z,1016.05
2017-06-19T05:28:53.819Z,1016.03
2017-06-19T05:29:34.354Z,1016.05
2017-06-19T05:30:14.891Z,1016.03
2017-06-19T05:30:55.427Z,1016.01
2017-06-19T05:31:35.977Z,1016.02
2017-06-19T05:32:16.529Z,1016.02
2017-06-19T05:32:57.078Z,1016.01
2017-06-19T05:33:37.626Z,1015.99
2017-06-19T05:34:18.170Z,1015.97
2017-06-19T05:34:58.719Z,1015.98
2017-06-19T05:35:39.258Z,1016.05
2017-06-19T05:36:19.774Z,1016.03
2017-06-19T05:37:00.304Z,1016.02
2017-06-19T05:37:40.844Z,1016.04
2017-06-19T05:38:21.383Z,1016
2017-06-19T05:39:01.923Z,1016.02
2017-06-19T05:39:42.466Z,1016.02
2017-06-19T05:40:22.998Z,1016
2017-06-19T05:41:03.551Z,1016.01
2017-06-19T05:41:44.084Z,1016.02
2017-06-19T05:42:24.625Z,1016
2017-06-19T05:43:05.157Z,1015.99
2017-06-19T05:43:45.711Z,1016.01
2017-06-19T05:44:26.255Z,1016.02
2017-06-19T05:45:06.816Z,1016.06
2017-06-19T05:45:47.359Z,1016.02
2017-06-19T05:46:27.895Z,1016.06
2017-06-19T05:47:08.446Z,1016.02
2017-06-19T05:47:48.998Z,1016.03
2017-06-19T05:48:29.544Z,1016.01
2017-06-19T05:49:10.145Z,1016.01
2017-06-19T05:49:50.962Z,1016
2017-06-19T05:50:31.609Z,1016.03
2017-06-19T05:51:12.146Z,1016
2017-06-19T05:51:52.662Z,1015.97
2017-06-19T05:52:33.217Z,1015.94
2017-06-19T05:53:13.751Z,1015.97
2017-06-19T05:53:54.281Z,1015.94
2017-06-19T05:54:34.813Z,1015.98
2017-06-19T05:55:15.352Z,1015.96
2017-06-19T05:55:55.902Z,1015.97
2017-06-19T05:56:36.441Z,1015.95
2017-06-19T05:57:16.992Z,1015.95
2017-06-19T05:57:57.496Z,1015.93
2017-06-19T05:58:38.005Z,1015.9
2017-06-19T05:59:18.545Z,1015.92
2017-06-19T05:59:59.094Z,1015.9
2017-06-19T06:00:39.653Z,1015.91
2017-06-19T06:01:20.211Z,1015.93
2017-06-19T06:02:00.763Z,1015.91
2017-06-19T06:02:41.302Z,1015.89
2017-06-19T06:03:21.847Z,1015.92
2017-06-19T06:04:02.352Z,1015.9
2017-06-19T06:04:42.887Z,1015.95
2017-06-19T06:05:23.430Z,1015.93
2017-06-19T06:06:03.970Z,1015.93
2017-06-19T06:06:44.526Z,1015.94
2017-06-19T06:07:25.072Z,1015.95
2017-06-19T06:08:05.624Z,1015.97
2017-06-19T06:08:46.158Z,1015.92
2017-06-19T06:09:26.672Z,1015.96
2017-06-19T06:10:07.207Z,1015.91
2017-06-19T06:10:47.726Z,1015.91
2017-06-19T06:11:28.259Z,1015.91
2017-06-19T06:12:08.795Z,1015.92
2017-06-19T06:12:49.358Z,1015.94
2017-06-19T06:13:29.871Z,1015.95
2017-06-19T06:14:10.384Z,1015.94
2017-06-19T06:14:50.930Z,1015.93
2017-06-19T06:15:31.475Z,1015.95
2017-06-19T06:16:12.002Z,1015.96
2017-06-19T06:16:52.523Z,1015.94
2017-06-19T06:17:33.048Z,1015.93
2017-06-19T06:18:13.588Z,1015.93
2017-06-19T06:18:54.130Z,1015.93
2017-06-19T06:19:34.667Z,1015.94
2017-06-19T06:20:15.213Z,1015.97
2017-06-19T06:20:55.761Z,1015.97
2017-06-19T06:21:36.308Z,1015.93
2017-06-19T06:22:16.861Z,1015.95
2017-06-19T06:22:57.410Z,1015.97
2017-06-19T06:23:37.960Z,1015.96
2017-06-19T06:24:18.509Z,1015.96
2017-06-19T06:24:59.061Z,1015.97
2017-06-19T06:25:39.581Z,1015.97
2017-06-19T06:26:20.159Z,1015.95
2017-06-19T06:27:00.695Z,1015.95
2017-06-19T06:27:41.229Z,1015.97
2017-06-19T06:28:21.764Z,1015.96
2017-06-19T06:29:02.335Z,1015.9
2017-06-19T06:29:42.874Z,1015.93
2017-06-19T06:30:23.414Z,1015.93
2017-06-19T06:31:03.962Z,1015.98
2017-06-19T06:31:44.510Z,1015.95
2017-06-19T06:32:25.075Z,1015.94
2017-06-19T06:33:05.605Z,1015.92
2017-06-19T06:33:46.144Z,1015.96
2017-06-19T06:34:26.699Z,1015.96
2017-06-19T06:35:07.249Z,1015.97
2017-06-19T06:35:47.801Z,1015.95
2017-06-19T06:36:28.349Z,1015.93
2017-06-19T06:37:08.900Z,1015.92
2017-06-19T06:37:49.452Z,1015.97
2017-06-19T06:38:30.001Z,1015.93
2017-06-19T06:39:10.540Z,1015.97
2017-06-19T06:39:51.082Z,1015.99
2017-06-19T06:40:31.636Z,1015.97
2017-06-19T06:41:12.172Z,1015.99
2017-06-19T06:41:52.724Z,1015.95
2017-06-19T06:42:33.280Z,1015.95
2017-06-19T06:43:13.833Z,1015.91
2017-06-19T06:43:54.383Z,1015.92
2017-06-19T06:44:34.939Z,1015.96
2017-06-19T06:45:15.477Z,1015.95
2017-06-19T06:45:56.016Z,1015.94
2017-06-19T06:46:36.551Z,1015.96
2017-06-19T06:47:17.101Z,1015.97
2017-06-19T06:47:57.637Z,1015.96
2017-06-19T06:48:38.221Z,1015.94
2017-06-19T06:49:18.769Z,1015.94
2017-06-19T06:49:59.307Z,1015.91
2017-06-19T06:50:39.842Z,1015.91
2017-06-19T06:51:20.389Z,1015.93
2017-06-19T06:52:00.927Z,1015.93
2017-06-19T06:52:41.479Z,1015.91
2017-06-19T06:53:22.024Z,1015.91
2017-06-19T06:54:02.590Z,1015.9
2017-06-19T06:54:43.128Z,1015.86
2017-06-19T06:55:23.675Z,1015.88
2017-06-19T06:56:04.224Z,1015.87
2017-06-19T06:56:44.767Z,1015.86
2017-06-19T06:57:25.328Z,1015.89
2017-06-19T06:58:05.892Z,1015.93
2017-06-19T06:58:46.433Z,1015.92
2017-06-19T06:59:26.980Z,1015.86
2017-06-19T07:00:07.526Z,1015.86
2017-06-19T07:00:48.087Z,1015.84
2017-06-19T07:01:28.632Z,1015.83
2017-06-19T07:02:09.181Z,1015.83
2017-06-19T07:02:49.731Z,1015.8
2017-06-19T07:03:30.280Z,1015.83
2017-06-19T07:04:10.832Z,1015.79
2017-06-19T07:04:51.393Z,1015.79
2017-06-19T07:05:31.940Z,1015.78
2017-06-19T07:06:12.488Z,1015.74
2017-06-19T07:06:53.036Z,1015.74
2017-06-19T07:07:33.591Z,1015.74
2017-06-19T07:08:14.138Z,1015.75
2017-06-19T07:08:54.689Z,1015.74
2017-06-19T07:09:35.243Z,1015.71
2017-06-19T07:10:15.794Z,1015.73
2017-06-19T07:10:56.342Z,1015.71
2017-06-19T07:11:36.912Z,1015.74
2017-06-19T07:12:17.446Z,1015.72
2017-06-19T07:12:58.017Z,1015.73
2017-06-19T07:13:38.548Z,1015.72
2017-06-19T07:14:19.096Z,1015.69
2017-06-19T07:14:59.647Z,1015.7
2017-06-19T07:15:40.200Z,1015.66
2017-06-19T07:16:20.750Z,1015.68
2017-06-19T07:17:01.297Z,1015.69
2017-06-19T07:17:41.856Z,1015.68
2017-06-19T07:18:22.404Z,1015.67
2017-06-19T07:19:02.955Z,1015.68
2017-06-19T07:19:43.507Z,1015.64
2017-06-19T07:20:24.057Z,1015.65
2017-06-19T07:21:04.606Z,1015.63
2017-06-19T07:21:45.155Z,1015.66
2017-06-19T07:22:25.707Z,1015.63
2017-06-19T07:23:06.260Z,1015.61
2017-06-19T07:23:46.812Z,1015.61
2017-06-19T07:24:27.363Z,1015.6
2017-06-19T07:25:07.916Z,1015.61
2017-06-19T07:25:48.461Z,1015.64
2017-06-19T07:26:29.007Z,1015.62
2017-06-19T07:27:09.553Z,1015.63
2017-06-19T07:27:50.097Z,1015.65
2017-06-19T07:28:30.647Z,1015.58
2017-06-19T07:29:11.195Z,1015.61
2017-06-19T07:29:51.744Z,1015.58
2017-06-19T07:30:32.296Z,1015.63
2017-06-19T07:31:12.846Z,1015.61
2017-06-19T07:31:53.398Z,1015.6
2017-06-19T07:32:33.942Z,1015.6
2017-06-19T07:33:14.496Z,1015.62
2017-06-19T07:33:55.056Z,1015.59
2017-06-19T07:34:35.602Z,1015.59
2017-06-19T07:35:16.152Z,1015.62
2017-06-19T07:35:56.699Z,1015.58
2017-06-19T07:36:37.244Z,1015.61
2017-06-19T07:37:17.794Z,1015.61
2017-06-19T07:37:58.344Z,1015.6
2017-06-19T07:38:38.896Z,1015.55
2017-06-19T07:39:19.438Z,1015.58
2017-06-19T07:39:59.987Z,1015.55
2017-06-19T07:40:40.532Z,1015.54
2017-06-19T07:41:21.084Z,1015.55
2017-06-19T07:42:01.624Z,1015.56
2017-06-19T07:42:42.175Z,1015.57
2017-06-19T07:43:22.724Z,1015.57
2017-06-19T07:44:03.271Z,1015.59
2017-06-19T07:44:43.816Z,1015.56
2017-06-19T07:45:24.357Z,1015.56
2017-06-19T07:46:04.908Z,1015.59
2017-06-19T07:46:45.457Z,1015.56
2017-06-19T07:47:26.006Z,1015.52
2017-06-19T07:48:06.557Z,1015.55
2017-06-19T07:48:47.107Z,1015.55
2017-06-19T07:49:27.660Z,1015.52
2017-06-19T07:50:08.214Z,1015.51
2017-06-19T07:50:48.753Z,1015.51
2017-06-19T07:51:29.298Z,1015.52
2017-06-19T07:52:09.850Z,1015.5
2017-06-19T07:52:50.396Z,1015.48
2017-06-19T07:53:30.946Z,1015.46
2017-06-19T07:54:11.496Z,1015.49
2017-06-19T07:54:52.039Z,1015.44
2017-06-19T07:55:32.586Z,1015.46
2017-06-19T07:56:13.128Z,1015.47
2017-06-19T07:56:53.678Z,1015.44
2017-06-19T07:57:34.230Z,1015.46
2017-06-19T07:58:14.780Z,1015.45
2017-06-19T07:58:55.332Z,1015.4
2017-06-19T07:59:35.883Z,1015.45
2017-06-19T08:00:16.433Z,1015.42
2017-06-19T08:00:56.986Z,1015.44
2017-06-19T08:01:37.534Z,1015.43
2017-06-19T08:02:18.086Z,1015.4
2017-06-19T08:02:58.638Z,1015.37
2017-06-19T08:03:39.188Z,1015.39
2017-06-19T08:04:19.737Z,1015.39
2017-06-19T08:05:00.294Z,1015.39
2017-06-19T08:05:40.845Z,1015.41
2017-06-19T08:06:21.402Z,1015.39
2017-06-19T08:07:01.952Z,1015.37
2017-06-19T08:07:42.504Z,1015.38
2017-06-19T08:08:23.085Z,1015.35
2017-06-19T08:09:03.636Z,1015.33
2017-06-19T08:09:44.187Z,1015.36
2017-06-19T08:10:24.742Z,1015.35
2017-06-19T08:11:05.289Z,1015.32
2017-06-19T08:11:45.839Z,1015.34
2017-06-19T08:12:26.393Z,1015.29
2017-06-19T08:13:06.949Z,1015.28